Terminal Aerodrome Forecast
Issued by NWS

Home | Current Version | Previous Version | Text Only | Print | Product List | Glossary Off
Versions: 1 2 3 4 5 6 7 8 9 10 11 12 13 14 15 16 17 18

143
FTUS43 KMPX 160536
TAFAXN
TAF
KAXN 160536Z 1606/1706 14010KT P6SM OVC100
     FM160700 12012KT P6SM VCSH OVC040
     FM160900 13010KT 6SM -SHRA OVC035
      TEMPO 1609/1613 3SM TSRA OVC015CB
     FM161400 14008KT 4SM SHRA BR OVC008
     FM161800 14008KT P6SM OVC015
     FM170000 15007KT 5SM SHRA BR OVC020 PROB30 1700/1706 3SM TSRA
      OVC020CB=

USA.gov is the U.S. government's official web portal to all federal, state and local government web resources and services.